• Join FlightAware (Why Join?)
  • Login
  • US Flag 
06:46AM EDT


 

Airport Tracker/Info


-or-


 

Live Flight TrackerFlight Track Log ✈ ATN510 ✈ 27-Jun-2013 ✈ KBWI - BGTL / THU

Flight Track Log - Related Links

Times and Time Zones

All times are in EDT time to prevent confusion due to time zone crossing. See the ATN510 flight status page for this flight to view local times or setup timezone preferences in your user account.

Time Position Orientation Groundspeed Altitude Reporting Facility
EDT Latitude Longitude Course Direction KTS MPH feet Rate Location/Type
03:26AM 39.1500 -76.7550 185° South 233 268 2,800  Level FlightAware
03:27AM 39.1290 -76.7480 166° South 258 297 3,300 1,500 Climbing FlightAware
03:27AM 39.1140 -76.7330 142° Southeast 275 316 3,700 2,220 Climbing FlightAware
03:27AM 39.0850 -76.6970 136° Southeast 282 325 5,000 2,580 Climbing FlightAware
03:28AM 39.0650 -76.6660 130° Southeast 293 337 6,100 2,520 Climbing FlightAware
03:28AM 39.0600 -76.6390 103° East 295 339 6,700 2,580 Climbing FlightAware
03:29AM 39.0534 -76.5823 99° East 298 343 8,100 2,640 Climbing FlightAware ADS-B
03:29AM 39.0525 -76.5743 98° East 301 346 8,300 2,520 Climbing FlightAware ADS-B
03:29AM 39.0495 -76.5461 98° East 303 349 9,000 2,280 Climbing FlightAware ADS-B
03:29AM 39.0464 -76.5192 98° East 305 351 9,500 2,100 Climbing FlightAware ADS-B
03:30AM 39.0396 -76.4641 99° East 317 365 10,600 1,500 Climbing FlightAware ADS-B
03:30AM 39.0322 -76.4053 99° East 349 402 11,000 840 Climbing FlightAware ADS-B
03:30AM 39.0300 -76.3808 97° East 360 414 11,200 960 Climbing FlightAware ADS-B
03:31AM 39.0293 -76.3549 92° East 371 427 11,400 1,380 Climbing FlightAware ADS-B
03:31AM 39.0318 -76.2868 87° East 388 447 12,200 1,860 Climbing FlightAware ADS-B
03:32AM 39.0356 -76.2172 86° East 393 452 13,300 1,860 Climbing FlightAware ADS-B
03:32AM 39.0393 -76.1465 86° East 405 466 14,100 1,380 Climbing FlightAware ADS-B
03:33AM 39.0430 -76.0730 86° East 408 470 14,700 1,680 Climbing FlightAware ADS-B
03:33AM 39.0464 -76.0005 87° East 409 471 15,800 2,100 Climbing FlightAware ADS-B
03:34AM 39.0498 -75.9269 87° East 415 478 16,800 1,860 Climbing FlightAware ADS-B
03:34AM 39.0533 -75.8522 87° East 420 483 17,700 1,740 Climbing FlightAware ADS-B
03:35AM 39.0567 -75.7767 87° East 424 488 18,600 1,680 Climbing FlightAware ADS-B
03:35AM 39.0602 -75.6998 87° East 430 495 19,400 1,560 Climbing FlightAware ADS-B
03:36AM 39.0634 -75.6228 87° East 434 499 20,200 1,560 Climbing FlightAware ADS-B
03:36AM 39.0667 -75.5450 87° East 438 504 21,000 1,620 Climbing FlightAware ADS-B
03:37AM 39.0699 -75.4666 87° East 439 505 21,900 1,560 Climbing FlightAware ADS-B
03:37AM 39.0732 -75.3870 87° East 443 510 22,600 1,380 Climbing FlightAware ADS-B
03:38AM 39.0764 -75.3076 87° East 448 516 23,300 1,200 Climbing FlightAware ADS-B
03:38AM 39.0796 -75.2275 87° East 452 520 23,800 1,080 Climbing FlightAware ADS-B
03:39AM 39.0827 -75.1462 87° East 457 526 24,400 1,200 Climbing FlightAware ADS-B
03:39AM 39.0862 -75.0549 87° East 462 532 25,100 1,200 Climbing FlightAware ADS-B
03:40AM 39.0893 -74.9719 87° East 466 536 25,700 1,080 Climbing FlightAware ADS-B
03:40AM 39.0923 -74.8876 87° East 471 542 26,200 1,080 Climbing FlightAware ADS-B
03:40AM 39.0933 -74.8669 86° East 472 543 26,400 1,380 Climbing FlightAware ADS-B
03:40AM 39.0947 -74.8528 83° East 472 543 26,500 840 Climbing FlightAware ADS-B
03:41AM 39.0988 -74.8286 78° East 473 544 26,600 780 Climbing FlightAware ADS-B
03:41AM 39.1027 -74.8125 73° East 474 545 26,700 1,500 Climbing FlightAware ADS-B
03:41AM 39.1078 -74.7957 69° East 474 545 26,900 1,500 Climbing FlightAware ADS-B
03:41AM 39.1224 -74.7614 61° Northeast 474 545 27,200 1,200 Climbing FlightAware ADS-B
03:41AM 39.1296 -74.7487 54° Northeast 472 543 27,300 1,620 Climbing FlightAware ADS-B
03:42AM 39.1707 -74.6838 51° Northeast 467 537 28,200 1,320 Climbing FlightAware ADS-B
03:42AM 39.2143 -74.6173 50° Northeast 469 540 28,700 780 Climbing FlightAware ADS-B
03:43AM 39.2565 -74.5527 50° Northeast 471 542 29,000 240 Climbing FlightAware ADS-B
03:43AM 39.2991 -74.4873 50° Northeast 466 536 29,000  Level FlightAware ADS-B
03:44AM 39.3404 -74.4236 50° Northeast 463 533 29,000  Level FlightAware ADS-B
03:44AM 39.3829 -74.3577 50° Northeast 464 534 29,000  Level FlightAware ADS-B
03:45AM 39.4268 -74.2895 50° Northeast 467 537 29,000  Level FlightAware ADS-B
03:45AM 39.4693 -74.2234 50° Northeast 469 540 29,000  Level FlightAware ADS-B
03:46AM 39.5108 -74.1585 50° Northeast 471 542 29,000  Level FlightAware ADS-B
03:46AM 39.5531 -74.0924 50° Northeast 473 544 29,000  Level FlightAware ADS-B
03:47AM 39.5961 -74.0250 50° Northeast 473 544 29,000  Level FlightAware ADS-B
03:47AM 39.6388 -73.9581 50° Northeast 475 547 29,000  Level FlightAware ADS-B
03:48AM 39.6814 -73.8911 50° Northeast 475 547 29,000  Level FlightAware ADS-B
03:48AM 39.7272 -73.8188 51° Northeast 477 549 29,000  Level FlightAware ADS-B
03:49AM 39.7700 -73.7512 51° Northeast 477 549 29,000  Level FlightAware ADS-B
03:49AM 39.8133 -73.6827 51° Northeast 477 549 29,000  Level FlightAware ADS-B
03:50AM 39.8557 -73.6155 51° Northeast 478 550 29,000  Level FlightAware ADS-B
03:50AM 39.8765 -73.5828 50° Northeast 478 550 29,000  Level FlightAware ADS-B
03:51AM 39.9163 -73.5269 47° Northeast 478 550 29,000  Level FlightAware ADS-B
03:51AM 39.9650 -73.4670 43° Northeast 476 548 29,000  Level FlightAware ADS-B
03:52AM 40.0141 -73.4088 42° Northeast 471 542 29,000  Level FlightAware ADS-B
03:52AM 40.0355 -73.3837 42° Northeast 471 542 29,000  Level FlightAware ADS-B
03:52AM 40.0581 -73.3605 38° Northeast 471 542 29,000  Level FlightAware ADS-B
03:52AM 40.0901 -73.3346 32° Northeast 471 542 29,000  Level FlightAware ADS-B
03:52AM 40.1136 -73.3196 26° Northeast 471 542 29,000  Level FlightAware ADS-B
03:53AM 40.1746 -73.2885 21° North 473 544 29,000  Level FlightAware ADS-B
03:53AM 40.2367 -73.2573 21° North 473 544 29,000  Level FlightAware ADS-B
03:54AM 40.2988 -73.2262 21° North 471 542 29,000  Level FlightAware ADS-B
03:54AM 40.3599 -73.1955 21° North 469 540 29,000  Level FlightAware ADS-B
03:55AM 40.4215 -73.1644 21° North 468 539 29,000  Level FlightAware ADS-B
03:56AM 40.4834 -73.1331 21° North 466 536 29,000  Level FlightAware ADS-B
03:56AM 40.5443 -73.1022 21° North 465 535 29,000  Level FlightAware ADS-B
03:57AM 40.6046 -73.0716 21° North 465 535 29,000  Level FlightAware ADS-B
03:57AM 40.6650 -73.0408 21° North 467 537 29,000  Level FlightAware ADS-B
03:58AM 40.7264 -73.0095 21° North 467 537 29,000  Level FlightAware ADS-B
03:58AM 40.7871 -72.9784 21° North 467 537 29,000  Level FlightAware ADS-B
03:59AM 40.8476 -72.9474 21° North 467 537 29,000  Level FlightAware ADS-B
03:59AM 40.9086 -72.9161 21° North 467 537 29,000  Level FlightAware ADS-B
04:00AM 40.9698 -72.8847 21° North 467 537 29,000  Level FlightAware ADS-B
04:00AM 41.0574 -72.8395 21° North 467 537 29,000  Level FlightAware ADS-B
04:01AM 41.1550 -72.7890 21° North 467 537 29,000  Level FlightAware
04:01AM 41.1994 -72.7659 21° North 467 537 29,000  Level FlightAware ADS-B
04:03AM 41.3250 -72.7000 22° Northeast 467 537 29,000  Level FlightAware
04:03AM 41.4080 -72.6580 21° North 465 535 29,000  Level FlightAware
04:04AM 41.4870 -72.6160 22° Northeast 465 535 29,000  Level FlightAware
04:05AM 41.5750 -72.5700 21° North 465 535 29,000  Level FlightAware
04:05AM 41.6560 -72.5270 22° Northeast 465 535 29,000  Level FlightAware
04:06AM 41.7420 -72.4820 21° North 465 535 29,000  Level FlightAware
04:07AM 41.8500 -72.4250 21° North 465 535 29,000  Level FlightAware
04:08AM 41.9530 -72.3700 22° Northeast 465 535 29,000  Level FlightAware
04:08AM 42.0460 -72.3200 22° Northeast 465 535 29,000  Level FlightAware
04:09AM 42.1300 -72.2760 21° North 466 536 29,000  Level FlightAware
04:10AM 42.2120 -72.2320 22° Northeast 466 536 29,000  Level FlightAware
04:11AM 42.2870 -72.1920 22° Northeast 466 536 29,000  Level FlightAware
04:11AM 42.3860 -72.1380 22° Northeast 466 536 29,000  Level FlightAware
04:12AM 42.4670 -72.0940 22° Northeast 466 536 29,000  Level FlightAware
04:13AM 42.5560 -72.0460 22° Northeast 466 536 29,000  Level FlightAware
04:13AM 42.6370 -72.0020 22° Northeast 466 536 29,000  Level FlightAware
04:14AM 42.7230 -71.9550 22° Northeast 465 535 29,000  Level FlightAware
04:16AM 42.9580 -71.8260 22° Northeast 463 533 29,000  Level FlightAware
04:17AM 43.0460 -71.7780 22° Northeast 463 533 29,000  Level FlightAware
04:18AM 43.1320 -71.7300 22° Northeast 462 532 29,000  Level FlightAware
04:18AM 43.2140 -71.6840 22° Northeast 462 532 29,000  Level FlightAware
04:19AM 43.2940 -71.6400 22° Northeast 461 531 29,000  Level FlightAware
04:20AM 43.4090 -71.5760 22° Northeast 460 529 29,000  Level FlightAware
04:21AM 43.4880 -71.5310 22° Northeast 459 528 29,000  Level FlightAware
04:21AM 43.5710 -71.4850 22° Northeast 458 527 29,000  Level FlightAware
04:22AM 43.6520 -71.4390 22° Northeast 458 527 29,000  Level FlightAware
04:23AM 43.7350 -71.3920 22° Northeast 457 526 29,000  Level FlightAware
04:23AM 43.8160 -71.3460 22° Northeast 456 525 29,000  Level FlightAware
04:24AM 43.9030 -71.2970 22° Northeast 457 526 29,000  Level FlightAware
04:25AM 43.9820 -71.2520 22° Northeast 457 526 29,000  Level FlightAware
04:25AM 44.0660 -71.2040 22° Northeast 456 525 29,000  Level FlightAware
04:26AM 44.1390 -71.1620 22° Northeast 456 525 29,000  Level FlightAware
04:27AM 44.2270 -71.1110 23° Northeast 456 525 29,000  Level FlightAware
04:28AM 44.3120 -71.0620 22° Northeast 455 524 29,000  Level FlightAware
04:28AM 44.3890 -71.0170 23° Northeast 455 524 29,000  Level FlightAware
04:29AM 44.4750 -70.9670 23° Northeast 455 524 29,000  Level FlightAware
04:29AM 44.5210 -70.9400 23° Northeast 456 525 29,000  Level FlightAware
04:31AM 44.7240 -70.8220 22° Northeast 450 518 29,000  Level FlightAware
04:32AM 44.8300 -70.7590 23° Northeast 441 507 29,000  Level FlightAware
04:33AM 44.9200 -70.7060 23° Northeast 438 504 29,000  Level FlightAware
04:34AM 45.0050 -70.6560 23° Northeast 437 503 29,000  Level FlightAware
04:34AM 45.0800 -70.6110 23° Northeast 436 502 29,000  Level FlightAware
04:35AM 45.1470 -70.5720 22° Northeast 436 502 29,000  Level FlightAware
04:36AM 45.2340 -70.5190 23° Northeast 445 512 29,000  Level FlightAware
04:36AM 45.3190 -70.4680 23° Northeast 446 513 29,000  Level FlightAware
04:37AM 45.4040 -70.4170 23° Northeast 448 516 29,000  Level FlightAware
04:38AM 45.4810 -70.3710 23° Northeast 450 518 29,000  Level FlightAware
04:38AM 45.5570 -70.3250 23° Northeast 451 519 29,000  Level FlightAware
04:39AM 45.6340 -70.2780 23° Northeast 453 521 29,000  Level FlightAware
04:40AM 45.7110 -70.2310 23° Northeast 454 522 29,000  Level FlightAware
04:41AM 45.7970 -70.1790 23° Northeast 456 525 29,000  Level FlightAware
04:41AM 45.8750 -70.1310 23° Northeast 458 527 29,000  Level FlightAware
04:42AM 45.9630 -70.0770 23° Northeast 459 528 29,000  Level FlightAware
04:43AM 46.0410 -70.0290 23° Northeast 460 529 29,000  Level FlightAware
04:43AM 46.1280 -69.9750 23° Northeast 460 529 29,000  Level FlightAware
04:44AM 46.2060 -69.9260 23° Northeast 459 528 29,000  Level FlightAware
04:48AM 46.5940 -69.6830 23° Northeast 457 526 29,000  Level FlightAware
04:48AM 46.7090 -69.6100 24° Northeast 460 529 29,000  Level FlightAware
04:49AM 46.7980 -69.5540 23° Northeast 461 531 29,000  Level FlightAware
04:50AM 46.8760 -69.5040 24° Northeast 459 528 29,000  Level FlightAware
04:51AM 46.9850 -69.4340 24° Northeast 461 531 29,000  Level FlightAware
04:51AM 47.0690 -69.3800 24° Northeast 465 535 29,000  Level FlightAware
04:52AM 47.1470 -69.3300 24° Northeast 469 540 29,000  Level FlightAware
04:53AM 47.2360 -69.2720 24° Northeast 472 543 29,000  Level FlightAware
04:53AM 47.3060 -69.2260 24° Northeast 474 545 29,000  Level FlightAware
04:54AM 47.4070 -69.1610 24° Northeast 479 551 29,000  Level FlightAware
04:55AM 47.4790 -69.1140 24° Northeast 482 555 29,000  Level FlightAware
04:56AM 47.6000 -69.0340 24° Northeast 486 559 29,000  Level FlightAware
04:57AM 47.7310 -68.9470 24° Northeast 488 562 29,000  Level FlightAware
04:58AM 47.8410 -68.8740 24° Northeast 488 562 29,000  Level FlightAware
04:59AM 47.9130 -68.8270 24° Northeast 488 562 29,000  Level FlightAware
04:59AM 48.0140 -68.7590 24° Northeast 488 562 29,000  Level FlightAware
05:01AM 48.2480 -68.6020 24° Northeast 484 557 29,000  Level FlightAware
05:02AM 48.3520 -68.5300 25° Northeast 483 556 29,000  Level FlightAware
05:03AM 48.4200 -68.4850 24° Northeast 483 556 29,000  Level FlightAware
05:03AM 48.4820 -68.4430 24° Northeast 483 556 29,000  Level FlightAware
05:04AM 48.5640 -68.3880 24° Northeast 483 556 29,000  Level FlightAware
05:05AM 48.6280 -68.3450 24° Northeast 483 556 29,000  Level FlightAware
05:05AM 48.7130 -68.2870 24° Northeast 483 556 29,000  Level FlightAware
05:06AM 48.8333 -68.2167 24° Northeast 480 552 29,000  Level Moncton Center
05:07AM 48.9500 -68.1167 29° Northeast 470 541 29,000  Level Moncton Center
05:08AM 49.0667 -68.0333 25° Northeast 470 541 29,000  Level Moncton Center
05:09AM 49.1667 -67.9500 29° Northeast 470 541 29,000  Level Moncton Center
05:10AM 49.2833 -67.8667 25° Northeast 470 541 29,000  Level Moncton Center
05:11AM 49.4000 -67.8000 20° North 470 541 29,000  Level Moncton Center
05:12AM 49.5333 -67.7000 26° Northeast 470 541 29,000  Level Moncton Center
05:13AM 49.6500 -67.6000 29° Northeast 470 541 29,000  Level Moncton Center
05:14AM 49.7833 -67.5333 18° North 480 552 29,000  Level Moncton Center
05:15AM 49.8833 -67.4333 33° Northeast 480 552 29,000  Level Moncton Center
05:16AM 50.0000 -67.3333 29° Northeast 480 552 29,000  Level Moncton Center
05:17AM 50.1500 -67.2500 20° North 490 564 29,000  Level Moncton Center
05:18AM 50.2667 -67.1667 25° Northeast 490 564 29,000  Level Moncton Center
05:19AM 50.3833 -67.0833 24° Northeast 490 564 29,000  Level Moncton Center
05:20AM 50.5000 -66.9833 29° Northeast 490 564 29,000  Level Moncton Center
05:21AM 50.6333 -66.8833 25° Northeast 490 564 29,000  Level Moncton Center
05:22AM 50.7500 -66.8000 24° Northeast 490 564 29,000  Level Moncton Center
05:23AM 50.8667 -66.7000 28° Northeast 480 552 29,000  Level Moncton Center
05:24AM 51.0000 -66.6000 25° Northeast 480 552 29,000  Level Moncton Center
05:25AM 51.1167 -66.5333 20° North 480 552 29,000  Level Moncton Center
05:26AM 51.2333 -66.4333 28° Northeast 480 552 29,000  Level Moncton Center
05:27AM 51.3500 -66.3333 28° Northeast 480 552 29,000  Level Moncton Center
05:28AM 51.4833 -66.2500 21° North 470 541 29,000  Level Moncton Center
05:29AM 51.5833 -66.1500 32° Northeast 470 541 29,000  Level Moncton Center
05:30AM 51.7167 -66.1000 13° North 470 541 29,000  Level Moncton Center
05:31AM 51.8333 -66.0500 15° North 460 529 29,000  Level Moncton Center
05:32AM 51.9500 -66.0000 15° North 460 529 29,000  Level Moncton Center
05:33AM 52.1000 -65.9167 19° North 460 529 29,000  Level Moncton Center
05:34AM 52.2167 -65.8667 15° North 460 529 29,000  Level Moncton Center
05:35AM 52.3500 -65.8167 13° North 460 529 29,000  Level Moncton Center
05:36AM 52.4667 -65.7667 15° North 460 529 29,000  Level Moncton Center
05:37AM 52.6000 -65.6833 21° North 460 529 29,000  Level Moncton Center
05:38AM 52.7167 -65.6333 15° North 460 529 29,000  Level Moncton Center
05:39AM 52.8333 -65.5833 15° North 460 529 29,000  Level Moncton Center
05:40AM 52.9500 -65.5333 14° North 460 529 29,000  Level Moncton Center
05:41AM 53.0667 -65.4333 27° Northeast 480 552 29,000  Level Montreal Center
05:42AM 53.1833 -65.3667 19° North 460 529 29,000  Level Montreal Center
05:43AM 53.3167 -65.3167 13° North 440 506 29,000  Level Montreal Center
05:44AM 53.4333 -65.2500 19° North 450 518 29,000  Level Montreal Center
05:45AM 53.5667 -65.1833 17° North 450 518 29,000  Level Montreal Center
05:46AM 53.6500 -65.1333 20° North 430 495 29,000  Level Montreal Center
05:47AM 53.7833 -65.0667 16° North 430 495 29,000  Level Montreal Center
05:48AM 53.9000 -65.0167 14° North 440 506 29,000  Level Montreal Center
05:49AM 54.0333 -64.9500 16° North 440 506 29,000  Level Montreal Center
05:50AM 54.1500 -64.9000 14° North 440 506 29,000  Level Montreal Center
05:51AM 54.2500 -64.8333 21° North 430 495 29,000  Level Montreal Center
05:52AM 54.3667 -64.7667 18° North 420 483 29,000  Level Montreal Center
05:53AM 54.4833 -64.7167 14° North 430 495 29,000  Level Montreal Center
05:54AM 54.6000 -64.6500 18° North 430 495 29,000  Level Montreal Center
05:55AM 54.7167 -64.5833 18° North 430 495 29,000  Level Montreal Center
05:56AM 54.8167 -64.5333 16° North 430 495 29,000  Level Montreal Center
05:57AM 54.9333 -64.4667 18° North 430 495 29,000  Level Montreal Center
05:58AM 55.0500 -64.4000 18° North 420 483 29,000  Level Montreal Center
05:59AM 55.1667 -64.3500 14° North 420 483 29,000  Level Montreal Center
06:00AM 55.2833 -64.2833 18° North 420 483 29,000  Level Montreal Center
06:01AM 55.3833 -64.2167 21° North 420 483 29,000  Level Montreal Center
06:02AM 55.5000 -64.1833 North 410 472 29,000  Level Montreal Center
06:03AM 55.6167 -64.1167 18° North 420 483 29,000  Level Montreal Center
06:04AM 55.7167 -64.0500 21° North 420 483 29,000  Level Montreal Center
06:05AM 55.8333 -64.0000 14° North 410 472 29,000  Level Montreal Center
06:06AM 55.9333 -63.9333 20° North 410 472 29,000  Level Montreal Center
06:07AM 56.0500 -63.8667 18° North 420 483 29,000  Level Montreal Center
06:08AM 56.1500 -63.8000 20° North 410 472 29,000  Level Montreal Center
06:09AM 56.2833 -63.7333 16° North 420 483 29,000  Level Montreal Center
06:10AM 56.3667 -63.6667 24° Northeast 410 472 29,000  Level Montreal Center
06:11AM 56.4833 -63.6000 18° North 420 483 29,000  Level Montreal Center
06:12AM 56.6000 -63.5333 17° North 410 472 29,000  Level Montreal Center
06:13AM 56.7167 -63.4667 17° North 420 483 29,000  Level Montreal Center
06:14AM 56.8167 -63.4000 20° North 410 472 29,000  Level Montreal Center
06:15AM 56.9167 -63.3667 10° North 410 472 29,000  Level Montreal Center
06:16AM 57.0333 -63.3000 17° North 410 472 29,000  Level Montreal Center
06:17AM 57.1500 -63.2333 17° North 420 483 29,000  Level Montreal Center
06:18AM 57.2667 -63.1500 21° North 410 472 29,000  Level Montreal Center
06:19AM 57.3667 -63.0833 20° North 420 483 29,000  Level Montreal Center
06:20AM 57.4833 -63.0167 17° North 410 472 29,000  Level Montreal Center
06:21AM 57.6000 -62.9500 17° North 420 483 29,000  Level Montreal Center
06:22AM 57.7000 -62.8667 24° Northeast 420 483 29,000  Level Montreal Center
06:23AM 57.8167 -62.8000 17° North 420 483 29,000  Level Montreal Center
06:24AM 57.9333 -62.7333 17° North 420 483 29,000  Level Montreal Center
06:25AM 58.0500 -62.6833 13° North 410 472 29,000  Level Montreal Center
06:26AM 58.1667 -62.6167 17° North 420 483 29,000  Level Montreal Center
06:27AM 58.2500 -62.5500 23° Northeast 420 483 29,000  Level Montreal Center
06:28AM 58.3667 -62.4667 21° North 420 483 29,000  Level Montreal Center
06:29AM 58.4833 -62.4000 17° North 430 495 29,000  Level Montreal Center
06:30AM 58.5833 -62.3167 23° Northeast 410 472 29,000  Level Montreal Center
06:31AM 58.7000 -62.2333 20° North 430 495 29,000  Level Montreal Center
06:32AM 58.8333 -62.1500 18° North 420 483 29,000  Level Montreal Center
06:33AM 58.9333 -62.0833 19° North 420 483 29,000  Level Montreal Center
06:34AM 59.0500 -62.0000 20° North 430 495 29,000  Level Montreal Center
06:35AM 59.1500 -61.9333 19° North 420 483 29,000  Level Montreal Center
06:36AM 59.2667 -61.8833 12° North 410 472 29,000  Level Montreal Center
06:37AM 59.3667 -61.8000 23° Northeast 420 483 29,000  Level Montreal Center
06:38AM 59.4833 -61.7333 16° North 430 495 29,000  Level Montreal Center
06:39AM 59.6000 -61.6500 20° North 430 495 29,000  Level Montreal Center
06:40AM 59.7000 -61.5667 23° Northeast 430 495 29,000  Level Montreal Center
06:41AM 59.8333 -61.5167 11° North 430 495 29,000  Level Montreal Center
06:42AM 59.9500 -61.4667 12° North 430 495 29,000  Level Montreal Center
06:43AM 60.0667 -61.3833 20° North 430 495 29,000  Level Montreal Center
06:44AM 60.1833 -61.3667 North 430 495 29,000  Level Montreal Center
06:45AM 60.3000 -61.3000 16° North 440 506 29,000  Level Montreal Center
06:46AM 60.4167 -61.2500 12° North 440 506 29,000  Level Montreal Center
06:47AM 60.5333 -61.2000 12° North 440 506 29,000  Level Montreal Center
06:48AM 60.6667 -61.1500 10° North 440 506 29,000  Level Montreal Center
06:49AM 60.7833 -61.1000 12° North 440 506 29,000  Level Montreal Center
06:50AM 60.9167 -61.0333 14° North 440 506 29,000  Level Montreal Center
06:51AM 61.0167 -60.9833 14° North 440 506 29,000  Level Montreal Center
06:52AM 61.1333 -60.9333 12° North 440 506 29,000  Level Montreal Center
06:53AM 61.2667 -60.8667 14° North 450 518 29,000  Level Montreal Center
06:54AM 61.4000 -60.8000 13° North 450 518 29,000  Level Montreal Center
06:55AM 61.5167 -60.7500 12° North 450 518 29,000  Level Montreal Center
06:56AM 61.6333 -60.7000 12° North 450 518 29,000  Level Montreal Center
06:57AM 61.7500 -60.6333 15° North 450 518 29,000  Level Montreal Center
06:58AM 61.8667 -60.5667 15° North 450 518 29,000  Level Montreal Center
06:59AM 62.0000 -60.5167 10° North 450 518 29,000  Level Montreal Center
07:00AM 62.1333 -60.4500 13° North 450 518 29,000  Level Montreal Center
07:01AM 62.2500 -60.3833 15° North 460 529 29,000  Level Montreal Center
07:02AM 62.3667 -60.3167 15° North 450 518 29,000  Level Montreal Center
07:03AM 62.4833 -60.2667 11° North 450 518 29,000  Level Montreal Center
07:04AM 62.6167 -60.2000 13° North 450 518 29,000  Level Montreal Center
07:05AM 62.7500 -60.1667 North 460 529 29,000  Level Montreal Center
07:06AM 62.8667 -60.1000 15° North 460 529 29,000  Level Montreal Center
07:07AM 62.9833 -60.0333 15° North 460 529 29,000  Level Montreal Center
07:08AM 63.1167 -59.9667 13° North 460 529 29,000  Level Montreal Center
07:09AM 63.2333 -59.9000 14° North 460 529 29,000  Level Montreal Center
07:10AM 63.3667 -59.8333 13° North 460 529 29,000  Level Montreal Center
07:11AM 63.4833 -59.7667 14° North 460 529 29,000  Level Montreal Center
07:12AM 63.6000 -59.7000 14° North 460 529 29,000  Level Montreal Center
07:13AM 59.7167 -61.6167 12° North 452 520 29,000  Level ETMS Enhanced Traffic Management System
07:13AM 59.7167 -61.6167 12° North 452 520 29,000  Level ETMS Enhanced Traffic Management System
07:13AM 63.7333 -59.6333 12° North 460 529 29,000  Level Montreal Center
07:13AM 63.7833 -59.6667 12° North 470 541 29,000  Level Gander Center
07:14AM 63.9000 -59.5833 12° North 460 529 29,000  Level Gander Center
07:15AM 63.9667 -59.4833 33° Northeast 460 529 29,000  Level Montreal Center
07:16AM 64.1000 -59.4167 12° North 460 529 29,000  Level Montreal Center
07:17AM 64.2333 -59.3333 15° North 460 529 29,000  Level Montreal Center
07:18AM 64.3667 -59.2667 12° North 470 541 29,000  Level Montreal Center
07:19AM 64.4667 -59.2000 16° North 460 529 29,000  Level Montreal Center
07:20AM 64.6000 -59.1167 15° North 470 541 29,000  Level Montreal Center
07:21AM 59.7167 -61.6167 12° North 452 520 29,000  Level ETMS Enhanced Traffic Management System
07:21AM 64.7333 -59.0333 15° North 470 541 29,000  Level Montreal Center
07:21AM 64.7833 -59.0667 12° North 470 541 29,000  Level Gander Center
07:22AM 64.9000 -59.0333 North 460 529 29,000  Level Gander Center
07:23AM 65.0500 -58.9333 16° North 480 552 29,000  Level Gander Center
07:24AM 65.1000 -58.8500 35° Northeast 480 552 29,000  Level Montreal Center
07:25AM 65.2333 -58.8000 North 460 529 29,000  Level Montreal Center
07:26AM 65.3667 -58.7667 North 460 529 29,000  Level Montreal Center
07:27AM 65.4833 -58.7333 North 460 529 29,000  Level Montreal Center
07:28AM 65.6167 -58.6833 North 460 529 29,000  Level Montreal Center
07:29AM 65.7333 -58.6167 13° North 460 529 29,000  Level Montreal Center
07:30AM 65.8667 -58.5667 North 460 529 29,000  Level Montreal Center
07:31AM 66.0167 -58.5500 North 470 541 29,000  Level Montreal Center
07:32AM 66.1167 -58.4833 15° North 470 541 29,000  Level Montreal Center
07:33AM 66.2667 -58.4667 North 470 541 29,000  Level Montreal Center
07:34AM 66.3833 -58.3833 16° North 460 529 29,000  Level Montreal Center
07:35AM 66.5000 -58.3500 North 460 529 29,000  Level Montreal Center
07:36AM 66.6333 -58.3000 North 460 529 29,000  Level Montreal Center
07:37AM 66.8167 -58.3167 358° North 460 529 29,000  Level Gander Center
07:38AM 66.9500 -58.3000 North 470 541 29,000  Level Gander Center
07:39AM 67.0833 -58.2500 North 470 541 29,000  Level Gander Center
07:40AM 67.2000 -58.1833 12° North 470 541 29,000  Level Gander Center
07:41AM 67.3167 -58.1333 North 470 541 29,000  Level Gander Center
07:42AM 67.4500 -58.0667 11° North 460 529 29,000  Level Gander Center
07:43AM 67.5833 -58.0167 North 470 541 29,000  Level Gander Center
07:44AM 67.7000 -58.0000 North 460 529 29,000  Level Gander Center
07:45AM 67.8333 -57.9333 11° North 470 541 29,000  Level Gander Center
07:46AM 67.9667 -57.8833 North 460 529 29,000  Level Gander Center
07:47AM 68.0667 -57.8167 14° North 460 529 29,000  Level Gander Center
07:48AM 68.2000 -57.8000 North 460 529 29,000  Level Gander Center
07:49AM 68.3333 -57.7333 10° North 460 529 29,000  Level Gander Center
07:50AM 68.4500 -57.6667 12° North 460 529 29,000  Level Gander Center
07:51AM 68.5833 -57.6167 North 460 529 29,000  Level Gander Center
07:52AM 68.7000 -57.5833 North 470 541 29,000  Level Gander Center
07:53AM 68.8333 -57.5167 10° North 460 529 29,000  Level Gander Center
07:54AM 68.9500 -57.4667 North 460 529 29,000  Level Gander Center
07:55AM 69.0833 -57.4000 10° North 460 529 29,000  Level Gander Center
07:56AM 69.2167 -57.3167 13° North 460 529 29,000  Level Gander Center
07:57AM 69.3167 -57.2667 10° North 460 529 29,000  Level Gander Center
07:58AM 69.4500 -57.2333 North 460 529 29,000  Level Gander Center
07:59AM 69.5833 -57.1667 10° North 460 529 29,000  Level Gander Center
08:00AM 69.7000 -57.1000 11° North 460 529 29,000  Level Gander Center
08:01AM 69.8167 -57.0667 North 460 529 29,000  Level Gander Center
08:02AM 69.9500 -56.9500 17° North 460 529 29,000  Level Gander Center
08:03AM 70.0833 -56.9333 North 460 529 29,000  Level Gander Center
08:04AM 70.2000 -56.9000 North 470 541 29,000  Level Gander Center
08:05AM 70.3167 -56.8333 11° North 460 529 29,000  Level Gander Center
08:06AM 70.4500 -56.8500 358° North 470 541 29,000  Level Gander Center
08:07AM 70.5500 -56.8333 North 470 541 29,000  Level Gander Center
08:09AM 70.6856 -57.0138 336° Northwest  Level Estimated
08:16AM 71.4954 -58.1500 336° Northwest  Level Estimated
08:17AM 71.6105 -58.3202 335° Northwest  Level Estimated
08:18AM 71.7254 -58.4924 335° Northwest  Level Estimated
08:19AM 71.8402 -58.6668 335° Northwest  Level Estimated
08:20AM 71.9548 -58.8433 335° Northwest  Level Estimated
08:21AM 72.0693 -59.0219 334° Northwest  Level Estimated
08:22AM 72.1836 -59.2028 334° Northwest  Level Estimated
08:23AM 72.2978 -59.3859 334° Northwest  Level Estimated
08:24AM 72.4117 -59.5714 334° Northwest  Level Estimated
08:25AM 72.5255 -59.7592 334° Northwest  Level Estimated
08:26AM 72.6391 -59.9493 333° Northwest  Level Estimated
08:27AM 72.7525 -60.1419 333° Northwest  Level Estimated
08:28AM 72.8658 -60.3370 333° Northwest  Level Estimated
08:29AM 72.9788 -60.5345 333° Northwest  Level Estimated
08:30AM 73.0917 -60.7347 333° Northwest  Level Estimated
08:31AM 73.2044 -60.9374 333° Northwest  Level Estimated
08:32AM 73.3168 -61.1428 332° Northwest  Level Estimated
08:33AM 73.4291 -61.3509 332° Northwest  Level Estimated
08:34AM 73.5411 -61.5618 332° Northwest  Level Estimated
08:35AM 73.6529 -61.7754 332° Northwest  Level Estimated
08:36AM 73.7646 -61.9920 332° Northwest  Level Estimated
08:37AM 73.8760 -62.2114 331° Northwest  Level Estimated
08:38AM 73.9871 -62.4338 331° Northwest  Level Estimated
08:39AM 74.0981 -62.6592 331° Northwest  Level Estimated
08:40AM 74.2088 -62.8878 331° Northwest  Level Estimated
08:41AM 74.3192 -63.1194 330° Northwest  Level Estimated
08:42AM 74.4294 -63.3543 330° Northwest  Level Estimated
08:43AM 74.5394 -63.5924 330° Northwest  Level Estimated
08:44AM 74.6491 -63.8338 330° Northwest  Level Estimated
08:45AM 74.7585 -64.0787 330° Northwest  Level Estimated
08:46AM 74.8677 -64.3269 329° Northwest  Level Estimated
08:47AM 74.9766 -64.5787 329° Northwest  Level Estimated
08:48AM 75.0852 -64.8341 329° Northwest  Level Estimated
08:49AM 75.1935 -65.0932 329° Northwest  Level Estimated
08:50AM 75.3015 -65.3559 328° Northwest  Level Estimated
08:51AM 75.4093 -65.6225 328° Northwest  Level Estimated
08:52AM 75.5167 -65.8930 328° Northwest  Level Estimated
08:53AM 75.6238 -66.1673 328° Northwest  Level Estimated
08:54AM 75.7306 -66.4458 327° Northwest  Level Estimated
08:55AM 75.8371 -66.7283 327° Northwest  Level Estimated
08:56AM 75.9432 -67.0150 327° Northwest  Level Estimated
08:57AM 76.0490 -67.3060 326° Northwest  Level Estimated
08:58AM 76.1544 -67.6013 326° Northwest  Level Estimated
08:59AM 76.2595 -67.9010 326° Northwest  Level Estimated
09:00AM 76.3642 -68.2053 326° Northwest  Level Estimated
09:01AM 76.4685 -68.5142 325° Northwest  Level Estimated
09:02AM 76.5314 -68.7032 325° Northwest  Level Estimated
09:03AM 76.5314 -68.7032 183° South  Level Estimated
09:04AM 76.5314 -68.7032 183° South  Level Estimated
09:05AM 76.5314 -68.7032 183° South  Level Estimated
09:06AM 76.5314 -68.7032 183° South  Level Estimated
09:07AM 76.5314 -68.7032 183° South  Level Estimated
09:08AM 76.5314 -68.7032 183° South  Level Estimated
09:09AM 76.5314 -68.7032 183° South  Level Estimated
09:10AM 76.5314 -68.7032 183° South  Level Estimated
09:11AM 76.5314 -68.7032 183° South  Level Estimated
09:12AM 76.5314 -68.7032 183° South  Level Estimated
09:13AM 76.5314 -68.7032 183° South  Level Estimated
09:14AM 76.5314 -68.7032 183° South  Level Estimated
09:15AM 76.5314 -68.7032 183° South  Level Estimated
09:16AM 76.5314 -68.7032 183° South  Level Estimated
09:17AM 76.5314 -68.7032 183° South  Level Estimated
09:18AM 76.5314 -68.7032 183° South  Level Estimated
09:19AM 76.5314 -68.7032 183° South  Level Estimated
09:20AM 76.5314 -68.7032 183° South  Level Estimated
09:21AM 76.5314 -68.7032 183° South  Level Estimated
09:22AM 76.5314 -68.7032 183° South  Level Estimated
09:23AM 76.5314 -68.7032 183° South  Level Estimated
09:24AM 76.5314 -68.7032 183° South  Level Estimated